createdAt,value
2019-03-03T00:00:23.544Z,90.50
2019-03-03T00:02:52.214Z,90.50
2019-03-03T00:05:20.947Z,90.60
2019-03-03T00:07:49.681Z,90.60
2019-03-03T00:10:18.474Z,90.60
2019-03-03T00:12:47.164Z,90.70
2019-03-03T00:15:15.898Z,90.60
2019-03-03T00:17:44.641Z,90.70
2019-03-03T00:20:14.887Z,90.60
2019-03-03T00:22:43.619Z,90.60
2019-03-03T00:25:13.771Z,90.70
2019-03-03T00:27:42.496Z,90.60
2019-03-03T00:30:15.893Z,90.70
2019-03-03T00:32:44.687Z,90.80
2019-03-03T00:35:13.367Z,90.80
2019-03-03T00:37:43.837Z,90.90
2019-03-03T00:40:29.406Z,91.00
2019-03-03T00:43:15.879Z,91.00
2019-03-03T00:45:52.438Z,91.00
2019-03-03T00:48:37.925Z,91.00
2019-03-03T00:51:14.292Z,91.10
2019-03-03T00:53:44.671Z,91.10
2019-03-03T00:56:27.322Z,91.30
2019-03-03T00:59:03.440Z,91.30
2019-03-03T01:01:39.774Z,91.40
2019-03-03T01:04:12.578Z,91.40
2019-03-03T01:06:48.733Z,91.40
2019-03-03T01:09:21.489Z,91.30
2019-03-03T01:11:55.390Z,91.40
2019-03-03T01:14:28.762Z,91.40
2019-03-03T01:17:01.767Z,91.40
2019-03-03T01:19:32.135Z,91.40
2019-03-03T01:22:05.502Z,91.50
2019-03-03T01:24:35.873Z,91.60
2019-03-03T01:27:04.611Z,91.60
2019-03-03T01:29:33.195Z,91.70
2019-03-03T01:32:02.133Z,91.80
2019-03-03T01:34:30.866Z,91.90
2019-03-03T01:36:59.598Z,91.90
2019-03-03T01:39:28.305Z,91.90
2019-03-03T01:41:57.006Z,92.00
2019-03-03T01:44:25.600Z,92.00
2019-03-03T01:46:54.335Z,92.00
2019-03-03T01:49:23.073Z,92.00
2019-03-03T01:51:51.809Z,91.90
2019-03-03T01:54:20.481Z,91.90
2019-03-03T01:56:49.219Z,91.90
2019-03-03T01:59:17.885Z,91.90
2019-03-03T02:01:46.617Z,91.80
2019-03-03T02:04:15.422Z,91.70
2019-03-03T02:06:44.171Z,91.50
2019-03-03T02:09:13.240Z,91.90
2019-03-03T02:11:42.038Z,91.70
2019-03-03T02:14:10.762Z,91.70
2019-03-03T02:16:39.503Z,91.60
2019-03-03T02:19:08.090Z,91.70
2019-03-03T02:21:36.782Z,92.10
2019-03-03T02:24:05.589Z,92.00
2019-03-03T02:26:34.321Z,91.80
2019-03-03T02:29:03.437Z,91.80
2019-03-03T02:31:32.176Z,91.90
2019-03-03T02:34:00.986Z,92.00
2019-03-03T02:36:29.719Z,92.00
2019-03-03T02:38:58.382Z,92.10
2019-03-03T02:41:27.127Z,92.10
2019-03-03T02:43:55.773Z,92.20
2019-03-03T02:46:24.615Z,92.10
2019-03-03T02:48:53.309Z,92.10
2019-03-03T02:51:22.021Z,92.20
2019-03-03T02:53:50.751Z,92.60
2019-03-03T02:56:19.419Z,92.10
2019-03-03T02:58:48.151Z,92.10
2019-03-03T03:01:18.530Z,92.00
2019-03-03T03:03:47.268Z,92.10
2019-03-03T03:06:35.474Z,92.10
2019-03-03T03:09:19.618Z,92.10
2019-03-03T03:11:49.922Z,92.20
2019-03-03T03:14:20.303Z,92.20
2019-03-03T03:16:56.935Z,92.30
2019-03-03T03:19:27.302Z,92.40
2019-03-03T03:22:12.894Z,92.30
2019-03-03T03:24:49.322Z,92.30
2019-03-03T03:27:22.418Z,92.50
2019-03-03T03:30:09.397Z,92.50
2019-03-03T03:32:39.733Z,92.50
2019-03-03T03:35:31.463Z,92.60
2019-03-03T03:38:01.772Z,92.80
2019-03-03T03:40:32.149Z,92.80
2019-03-03T03:43:14.772Z,92.90
2019-03-03T03:46:01.804Z,92.80
2019-03-03T03:48:34.851Z,92.80
2019-03-03T03:51:07.938Z,92.80
2019-03-03T03:53:41.311Z,92.80
2019-03-03T03:56:17.916Z,93.10
2019-03-03T03:58:51.153Z,92.70
2019-03-03T04:01:37.819Z,92.70
2019-03-03T04:04:17.090Z,92.70
2019-03-03T04:06:47.484Z,92.60
2019-03-03T04:09:23.839Z,92.70
2019-03-03T04:11:56.931Z,92.60
2019-03-03T04:14:27.278Z,92.60
2019-03-03T04:17:06.514Z,92.70
2019-03-03T04:19:55.189Z,92.70
2019-03-03T04:22:43.312Z,92.50
2019-03-03T04:25:19.407Z,92.60
2019-03-03T04:28:05.082Z,92.60
2019-03-03T04:30:35.470Z,92.50
2019-03-03T04:33:05.842Z,92.60
2019-03-03T04:35:42.257Z,92.60
2019-03-03T04:38:15.331Z,92.60
2019-03-03T04:40:48.682Z,92.50
2019-03-03T04:45:59.355Z,92.60
2019-03-03T04:48:32.519Z,92.70
2019-03-03T04:51:19.261Z,92.70
2019-03-03T04:53:49.561Z,92.80
2019-03-03T04:56:19.884Z,92.80
2019-03-03T04:59:06.757Z,92.80
2019-03-03T05:01:45.832Z,92.80
2019-03-03T05:04:16.139Z,92.80
2019-03-03T05:06:46.438Z,93.00
2019-03-03T05:09:25.787Z,93.00
2019-03-03T05:12:29.030Z,93.20
2019-03-03T05:15:05.384Z,93.20
2019-03-03T05:17:38.767Z,93.30
2019-03-03T05:20:09.417Z,93.40
2019-03-03T05:22:38.158Z,93.60
2019-03-03T05:25:07.397Z,93.80
2019-03-03T05:27:36.065Z,93.90
2019-03-03T05:30:07.998Z,94.20
2019-03-03T05:32:36.664Z,94.30
2019-03-03T05:35:07.303Z,94.30
2019-03-03T05:37:36.038Z,94.40
2019-03-03T05:42:41.090Z,94.60
2019-03-03T05:45:09.826Z,95.10
2019-03-03T05:47:38.524Z,94.90
2019-03-03T05:50:07.156Z,95.10
2019-03-03T05:52:35.821Z,95.10
2019-03-03T05:55:05.645Z,95.30
2019-03-03T05:57:34.396Z,95.40
2019-03-03T06:00:03.495Z,95.60
2019-03-03T06:02:32.158Z,95.70
2019-03-03T06:05:00.830Z,95.70
2019-03-03T06:07:29.495Z,95.80
2019-03-03T06:09:58.165Z,95.80
2019-03-03T06:12:26.891Z,95.90
2019-03-03T06:14:55.642Z,95.90
2019-03-03T06:17:24.373Z,96.00
2019-03-03T06:19:53.033Z,96.30
2019-03-03T06:22:21.701Z,96.00
2019-03-03T06:24:50.318Z,96.10
2019-03-03T06:27:19.007Z,96.60
2019-03-03T06:29:47.688Z,96.10
2019-03-03T06:32:16.343Z,96.20
2019-03-03T06:34:45.007Z,96.20
2019-03-03T06:37:13.665Z,96.20
2019-03-03T06:39:42.341Z,96.30
2019-03-03T06:42:11.072Z,96.40
2019-03-03T06:44:39.770Z,96.50
2019-03-03T06:47:08.434Z,96.40
2019-03-03T06:49:37.097Z,96.50
2019-03-03T06:52:05.826Z,96.50
2019-03-03T06:54:34.495Z,96.50
2019-03-03T06:57:03.236Z,96.50
2019-03-03T06:59:31.891Z,96.50
2019-03-03T07:02:00.628Z,96.50
2019-03-03T07:04:29.357Z,96.50
2019-03-03T07:06:58.046Z,96.50
2019-03-03T07:09:26.707Z,96.50
2019-03-03T07:11:55.388Z,96.40
2019-03-03T07:14:24.278Z,96.40
2019-03-03T07:16:52.939Z,96.40
2019-03-03T07:19:21.611Z,96.20
2019-03-03T07:21:50.344Z,96.30
2019-03-03T07:24:19.083Z,96.00
2019-03-03T07:26:47.743Z,96.10
2019-03-03T07:29:19.270Z,95.90
2019-03-03T07:31:48.006Z,96.10
2019-03-03T07:34:16.745Z,96.00
2019-03-03T07:36:45.402Z,95.90
2019-03-03T07:39:18.203Z,95.80
2019-03-03T07:41:46.943Z,95.80
2019-03-03T07:44:15.682Z,95.80
2019-03-03T07:46:44.416Z,95.80
2019-03-03T07:49:13.156Z,95.70
2019-03-03T07:51:41.823Z,95.60
2019-03-03T07:54:10.482Z,95.60
2019-03-03T07:56:39.155Z,95.60
2019-03-03T07:59:07.891Z,95.60
2019-03-03T08:01:36.567Z,95.50
2019-03-03T08:04:05.303Z,95.50
2019-03-03T08:06:34.030Z,95.50
2019-03-03T08:09:03.038Z,95.40
2019-03-03T08:11:31.770Z,95.60
2019-03-03T08:14:00.510Z,95.60
2019-03-03T08:16:29.240Z,95.50
2019-03-03T08:18:57.914Z,95.80
2019-03-03T08:21:26.570Z,95.60
2019-03-03T08:23:55.230Z,95.60
2019-03-03T08:26:23.904Z,95.70
2019-03-03T08:28:52.633Z,95.70
2019-03-03T08:31:21.295Z,95.80
2019-03-03T08:33:49.958Z,95.70
2019-03-03T08:36:18.625Z,95.70
2019-03-03T08:38:47.288Z,95.70
2019-03-03T08:41:16.028Z,95.80
2019-03-03T08:43:46.324Z,95.70
2019-03-03T08:46:28.995Z,95.50
2019-03-03T08:49:03.011Z,95.50
2019-03-03T08:51:33.318Z,95.40
2019-03-03T08:54:03.698Z,95.50
2019-03-03T08:56:49.214Z,95.60
2019-03-03T08:59:22.618Z,95.60
2019-03-03T09:02:01.701Z,95.60
2019-03-03T09:04:40.542Z,95.60
2019-03-03T09:07:28.947Z,95.70
2019-03-03T09:09:59.247Z,95.70
2019-03-03T09:12:29.631Z,95.80
2019-03-03T09:15:08.738Z,95.80
2019-03-03T09:17:39.045Z,95.90
2019-03-03T09:20:26.292Z,95.80
2019-03-03T09:22:56.676Z,95.80
2019-03-03T09:25:29.829Z,95.80
2019-03-03T09:28:02.891Z,95.60
2019-03-03T09:30:48.299Z,95.50
2019-03-03T09:33:36.781Z,95.40
2019-03-03T09:36:22.512Z,95.50
2019-03-03T09:38:55.607Z,95.50
2019-03-03T09:41:32.291Z,95.60
2019-03-03T09:44:05.308Z,95.70
2019-03-03T09:46:35.583Z,95.80
2019-03-03T09:49:17.078Z,96.00
2019-03-03T09:51:55.178Z,96.10
2019-03-03T09:54:25.568Z,96.30
2019-03-03T09:56:55.938Z,96.60
2019-03-03T09:59:41.350Z,96.60
2019-03-03T10:02:11.654Z,96.80
2019-03-03T10:04:41.967Z,96.90
2019-03-03T10:07:14.850Z,97.00
2019-03-03T10:10:01.578Z,97.10
2019-03-03T10:12:31.885Z,97.20
2019-03-03T10:15:18.935Z,97.20
2019-03-03T10:18:01.252Z,97.30
2019-03-03T10:21:03.184Z,97.40
2019-03-03T10:23:45.476Z,97.50
2019-03-03T10:26:15.910Z,97.60
2019-03-03T10:28:46.228Z,97.80
2019-03-03T10:31:25.370Z,97.80
2019-03-03T10:33:58.180Z,98.00
2019-03-03T10:36:43.572Z,97.60
2019-03-03T10:39:20.048Z,97.70
2019-03-03T10:42:05.561Z,97.80
2019-03-03T10:44:44.866Z,97.90
2019-03-03T10:47:15.270Z,97.90
2019-03-03T10:49:57.711Z,97.90
2019-03-03T10:52:30.819Z,97.90
2019-03-03T10:55:17.385Z,97.90
2019-03-03T10:58:02.425Z,98.10
2019-03-03T11:00:32.911Z,98.00
2019-03-03T11:03:06.255Z,97.90
2019-03-03T11:05:39.457Z,98.00
2019-03-03T11:08:25.088Z,97.80
2019-03-03T11:10:58.449Z,97.80
2019-03-03T11:13:37.590Z,97.70
2019-03-03T11:16:26.303Z,97.90
2019-03-03T11:18:59.068Z,97.80
2019-03-03T11:21:29.458Z,98.10
2019-03-03T11:24:14.970Z,98.00
2019-03-03T11:26:48.121Z,97.90
2019-03-03T11:29:35.098Z,97.70
2019-03-03T11:32:08.419Z,97.70
2019-03-03T11:34:38.618Z,98.10
2019-03-03T11:37:08.990Z,97.70
2019-03-03T11:39:45.065Z,97.70
2019-03-03T11:42:15.703Z,97.50
2019-03-03T11:44:55.231Z,97.40
2019-03-03T11:47:28.535Z,97.60
2019-03-03T11:49:58.843Z,97.90
2019-03-03T11:52:35.034Z,97.60
2019-03-03T11:55:06.248Z,97.80
2019-03-03T11:57:36.625Z,97.70
2019-03-03T12:00:25.327Z,97.70
2019-03-03T12:02:55.669Z,97.60
2019-03-03T12:05:26.078Z,97.70
2019-03-03T12:07:58.885Z,97.50
2019-03-03T12:10:34.968Z,97.60
2019-03-03T12:13:14.637Z,97.70
2019-03-03T12:16:01.409Z,97.70
2019-03-03T12:18:31.774Z,97.70
2019-03-03T12:21:02.153Z,97.90
2019-03-03T12:23:48.734Z,98.10
2019-03-03T12:26:28.298Z,98.00
2019-03-03T12:29:01.662Z,98.00
2019-03-03T12:31:32.045Z,97.90
2019-03-03T12:34:02.300Z,97.90
2019-03-03T12:36:44.630Z,97.90
2019-03-03T12:39:16.605Z,98.10
2019-03-03T12:41:58.989Z,98.10
2019-03-03T12:44:38.346Z,98.10
2019-03-03T12:47:25.194Z,98.20
2019-03-03T12:49:55.504Z,98.10
2019-03-03T12:52:28.878Z,98.00
2019-03-03T12:55:05.165Z,98.20
2019-03-03T12:57:50.966Z,98.20
2019-03-03T13:00:21.838Z,98.20
2019-03-03T13:03:08.413Z,98.30
2019-03-03T13:05:38.608Z,98.40
2019-03-03T13:08:11.654Z,98.40
2019-03-03T13:10:44.979Z,98.40
2019-03-03T13:13:21.088Z,98.40
2019-03-03T13:16:00.262Z,98.10
2019-03-03T13:18:30.683Z,98.30
2019-03-03T13:21:00.920Z,98.30
2019-03-03T13:23:47.541Z,98.20
2019-03-03T13:26:23.646Z,98.00
2019-03-03T13:28:59.798Z,98.10
2019-03-03T13:34:37.559Z,98.00
2019-03-03T13:37:07.931Z,98.20
2019-03-03T13:39:53.600Z,98.10
2019-03-03T13:42:26.806Z,98.00
2019-03-03T13:44:55.677Z,98.00
2019-03-03T13:47:24.356Z,98.10
2019-03-03T13:49:52.977Z,98.20
2019-03-03T13:52:21.714Z,98.20
2019-03-03T13:54:50.448Z,98.20
2019-03-03T13:57:21.899Z,98.20
2019-03-03T13:59:50.635Z,98.20
2019-03-03T14:02:19.671Z,98.20
2019-03-03T14:04:48.368Z,98.20
2019-03-03T14:07:17.286Z,98.30
2019-03-03T14:09:45.947Z,98.30
2019-03-03T14:12:14.676Z,98.20
2019-03-03T14:14:43.380Z,98.20
2019-03-03T14:17:12.077Z,98.10
2019-03-03T14:19:40.819Z,98.10
2019-03-03T14:22:09.547Z,98.20
2019-03-03T14:24:38.285Z,98.10
2019-03-03T14:27:10.499Z,98.10
2019-03-03T14:29:37.455Z,98.20
2019-03-03T14:32:06.196Z,98.10
2019-03-03T14:34:34.866Z,98.20
2019-03-03T14:37:03.635Z,98.20
2019-03-03T14:39:32.292Z,98.10
2019-03-03T14:42:01.039Z,98.20
2019-03-03T14:44:29.776Z,98.10
2019-03-03T14:46:58.527Z,98.00
2019-03-03T14:49:27.164Z,98.40
2019-03-03T14:51:55.898Z,98.00
2019-03-03T14:54:24.565Z,97.70
2019-03-03T14:56:53.330Z,97.70
2019-03-03T14:59:22.007Z,98.00
2019-03-03T15:01:50.745Z,98.00
2019-03-03T15:04:19.559Z,98.10
2019-03-03T15:06:48.396Z,98.20
2019-03-03T15:09:21.349Z,98.10
2019-03-03T15:11:50.101Z,98.20
2019-03-03T15:14:18.830Z,98.30
2019-03-03T15:16:47.683Z,98.40
2019-03-03T15:19:16.426Z,98.50
2019-03-03T15:21:45.292Z,98.60
2019-03-03T15:24:14.019Z,98.60
2019-03-03T15:26:42.759Z,98.60
2019-03-03T15:29:11.505Z,98.70
2019-03-03T15:31:40.160Z,99.00
2019-03-03T15:34:09.886Z,99.10
2019-03-03T15:36:38.745Z,99.10
2019-03-03T15:39:07.982Z,99.20
2019-03-03T15:41:36.787Z,99.40
2019-03-03T15:44:06.037Z,99.20
2019-03-03T15:46:34.791Z,99.20
2019-03-03T15:49:03.540Z,99.20
2019-03-03T15:51:32.211Z,99.00
2019-03-03T15:54:00.942Z,98.90
2019-03-03T15:56:29.614Z,99.00
2019-03-03T15:58:58.357Z,99.00
2019-03-03T16:01:27.135Z,99.10
2019-03-03T16:03:55.859Z,99.20
2019-03-03T16:06:24.547Z,99.20
2019-03-03T16:08:53.227Z,99.20
2019-03-03T16:11:21.861Z,99.10
2019-03-03T16:13:50.603Z,99.10
2019-03-03T16:16:29.435Z,99.10
2019-03-03T16:18:58.199Z,99.30
2019-03-03T16:21:27.156Z,99.30
2019-03-03T16:23:55.827Z,99.40
2019-03-03T16:26:24.600Z,99.40
2019-03-03T16:28:53.263Z,99.40
2019-03-03T16:31:22.005Z,99.40
2019-03-03T16:33:50.703Z,99.60
2019-03-03T16:36:21.085Z,99.50
2019-03-03T16:38:55.386Z,99.40
2019-03-03T16:41:24.130Z,99.50
2019-03-03T16:43:52.858Z,99.60
2019-03-03T16:46:49.437Z,99.50
2019-03-03T16:49:18.515Z,99.60
2019-03-03T16:51:47.219Z,99.60
2019-03-03T16:54:15.957Z,99.60
2019-03-03T16:56:44.691Z,99.60
2019-03-03T16:59:13.433Z,99.60
2019-03-03T17:01:42.168Z,99.60
2019-03-03T17:04:10.971Z,99.60
2019-03-03T17:06:39.691Z,99.60
2019-03-03T17:09:08.630Z,99.60
2019-03-03T17:11:37.379Z,99.60
2019-03-03T17:14:06.117Z,99.60
2019-03-03T17:16:34.927Z,99.60
2019-03-03T17:19:03.672Z,99.80
2019-03-03T17:21:32.408Z,99.80
2019-03-03T17:24:01.161Z,99.80
2019-03-03T17:26:29.909Z,99.90
2019-03-03T17:28:58.655Z,99.90
2019-03-03T17:31:27.312Z,99.90
2019-03-03T17:33:56.042Z,99.90
2019-03-03T17:36:24.789Z,99.90
2019-03-03T17:38:53.461Z,99.90
2019-03-03T17:41:22.201Z,99.90
2019-03-03T17:43:51.007Z,99.90
2019-03-03T17:46:19.743Z,99.90
2019-03-03T17:48:48.502Z,99.90
2019-03-03T17:51:18.714Z,99.90
2019-03-03T17:53:50.214Z,99.90
2019-03-03T17:56:18.947Z,99.90
2019-03-03T17:58:47.894Z,99.90
2019-03-03T18:01:16.630Z,99.90
2019-03-03T18:03:45.446Z,99.90
2019-03-03T18:06:14.262Z,99.90
2019-03-03T18:08:42.963Z,99.90
2019-03-03T18:11:11.626Z,99.90
2019-03-03T18:13:40.371Z,99.90
2019-03-03T18:16:09.120Z,99.90
2019-03-03T18:18:37.792Z,99.90
2019-03-03T18:21:06.541Z,99.90
2019-03-03T18:23:35.285Z,99.90
2019-03-03T18:26:04.022Z,99.90
2019-03-03T18:28:34.349Z,99.90
2019-03-03T18:31:03.039Z,99.90
2019-03-03T18:33:31.821Z,99.90
2019-03-03T18:36:00.668Z,99.90
2019-03-03T18:38:29.407Z,99.90
2019-03-03T18:40:58.153Z,99.90
2019-03-03T18:43:26.891Z,99.90
2019-03-03T18:45:55.643Z,99.90
2019-03-03T18:48:24.466Z,99.90
2019-03-03T18:50:53.223Z,99.90
2019-03-03T18:53:22.075Z,99.90
2019-03-03T18:55:50.776Z,99.90
2019-03-03T18:58:19.551Z,99.90
2019-03-03T19:00:48.221Z,99.90
2019-03-03T19:03:16.969Z,99.90
2019-03-03T19:05:55.218Z,99.90
2019-03-03T19:08:16.338Z,99.90
2019-03-03T19:10:46.041Z,99.90
2019-03-03T19:13:14.762Z,99.90
2019-03-03T19:15:43.513Z,99.90
2019-03-03T19:18:12.247Z,99.90
2019-03-03T19:20:40.990Z,99.90
2019-03-03T19:23:09.731Z,99.90
2019-03-03T19:25:38.480Z,99.90
2019-03-03T19:28:07.215Z,99.90
2019-03-03T19:30:36.079Z,99.90
2019-03-03T19:33:23.048Z,99.90
2019-03-03T19:35:52.112Z,99.90
2019-03-03T19:38:20.779Z,99.90
2019-03-03T19:40:49.562Z,99.90
2019-03-03T19:43:18.306Z,99.90
2019-03-03T19:45:52.931Z,99.90
2019-03-03T19:48:24.579Z,99.90
2019-03-03T19:50:53.430Z,99.90
2019-03-03T19:53:22.272Z,99.90
2019-03-03T19:55:51.055Z,99.90
2019-03-03T19:58:19.793Z,99.90
2019-03-03T20:00:48.847Z,99.90
2019-03-03T20:03:17.642Z,99.90
2019-03-03T20:05:46.377Z,99.90
2019-03-03T20:08:15.060Z,99.90
2019-03-03T20:10:43.791Z,99.90
2019-03-03T20:13:12.539Z,99.90
2019-03-03T20:15:41.363Z,99.90
2019-03-03T20:18:10.842Z,99.90
2019-03-03T20:20:39.769Z,99.90
2019-03-03T20:23:08.464Z,99.90
2019-03-03T20:25:37.430Z,99.90
2019-03-03T20:28:06.267Z,99.90
2019-03-03T20:30:34.997Z,99.90
2019-03-03T20:33:03.835Z,99.90
2019-03-03T20:35:32.567Z,99.90
2019-03-03T20:38:01.240Z,99.90
2019-03-03T20:40:29.977Z,99.90
2019-03-03T20:43:19.646Z,99.90
2019-03-03T20:45:48.390Z,99.90
2019-03-03T20:48:17.122Z,99.90
2019-03-03T20:50:45.869Z,99.90
2019-03-03T20:53:14.598Z,99.90
2019-03-03T20:55:43.264Z,99.90
2019-03-03T20:58:12.083Z,99.90
2019-03-03T21:00:41.525Z,99.90
2019-03-03T21:03:10.340Z,99.90
2019-03-03T21:05:39.063Z,99.90
2019-03-03T21:08:07.742Z,99.90
2019-03-03T21:10:36.470Z,99.90
2019-03-03T21:13:05.250Z,99.90
2019-03-03T21:15:33.982Z,99.90
2019-03-03T21:18:02.766Z,99.90
2019-03-03T21:20:31.451Z,99.90
2019-03-03T21:23:00.610Z,99.90
2019-03-03T21:25:29.350Z,99.90
2019-03-03T21:27:58.090Z,99.90
2019-03-03T21:30:29.909Z,99.90
2019-03-03T21:32:58.647Z,99.90
2019-03-03T21:35:27.390Z,99.90
2019-03-03T21:37:56.133Z,99.90
2019-03-03T21:40:26.062Z,99.90
2019-03-03T21:42:54.800Z,99.90
2019-03-03T21:45:26.004Z,99.90
2019-03-03T21:47:55.633Z,99.90
2019-03-03T21:50:31.756Z,99.90
2019-03-03T21:53:00.493Z,99.90
2019-03-03T21:55:29.225Z,99.90
2019-03-03T21:57:57.961Z,99.90
2019-03-03T22:00:35.526Z,99.90
2019-03-03T22:03:04.531Z,99.90
2019-03-03T22:05:33.266Z,99.90
2019-03-03T22:08:02.003Z,99.90
2019-03-03T22:10:31.491Z,99.90
2019-03-03T22:13:01.522Z,99.90
2019-03-03T22:15:30.328Z,99.90
2019-03-03T22:17:59.164Z,99.90
2019-03-03T22:20:27.831Z,99.90
2019-03-03T22:22:56.688Z,99.90
2019-03-03T22:25:25.413Z,99.90
2019-03-03T22:27:54.166Z,99.90
2019-03-03T22:30:22.900Z,99.90
2019-03-03T22:32:51.522Z,99.90
2019-03-03T22:35:20.186Z,99.80
2019-03-03T22:37:48.887Z,99.70
2019-03-03T22:40:19.214Z,99.80
2019-03-03T22:42:47.887Z,99.80
2019-03-03T22:45:17.626Z,99.70
2019-03-03T22:47:46.360Z,99.50
2019-03-03T22:50:19.270Z,99.60
2019-03-03T22:52:48.001Z,99.60
2019-03-03T22:55:21.168Z,99.70
2019-03-03T22:57:49.996Z,99.80
2019-03-03T23:00:52.573Z,99.90
2019-03-03T23:03:29.886Z,99.80
2019-03-03T23:06:22.519Z,99.60
2019-03-03T23:09:11.931Z,99.60
2019-03-03T23:11:52.387Z,99.60
2019-03-03T23:14:32.857Z,99.50
2019-03-03T23:17:32.169Z,99.60
2019-03-03T23:20:15.535Z,99.40
2019-03-03T23:22:59.478Z,99.40
2019-03-03T23:25:51.275Z,99.40
2019-03-03T23:28:20.520Z,99.30
2019-03-03T23:30:49.848Z,99.30
2019-03-03T23:33:19.085Z,99.30
2019-03-03T23:35:47.815Z,99.20
2019-03-03T23:38:16.645Z,99.10
2019-03-03T23:40:45.385Z,99.00
2019-03-03T23:43:14.123Z,99.00
2019-03-03T23:45:43.159Z,98.90
2019-03-03T23:48:11.986Z,98.90
2019-03-03T23:50:40.730Z,98.80
2019-03-03T23:53:09.663Z,98.80
2019-03-03T23:55:38.378Z,98.80
2019-03-03T23:58:07.210Z,98.80
